1878 Major Hurricane NOT_NAMED (1878267N15288)


IBTrACS version v04r00. Visit IBTrACS website for data access.
Please direct all questions to the IBTrACS Q and A forum

Storm track - Intensity - Wind Radii - Intensity Data - Source Data - All data

Summary Information

Storm ID 1878267N15288
Start Sep 24 00Z
Landfall Sep 26 03Z, Sep 26 12Z
Max Intensity 120 kt (Oct 3 00Z), 938 mb (Oct 7 12Z)
End Oct 9 12Z
ATCF IDs ,AL071878
Track status Best track data.

Storm track plot

Map of storm track

Intensity plots

Map of storm track

Radial wind information

No radial wind information for this storm


Position and Intensity Table

BASIN ISO_TIME_________ NATURE LAT LON WMO WIND WMO PRES USA WIND USA PRES MLC WIND MLC PRES
degrees north degrees east kts mb kts mb kts mb
NA 1878-09-24 00:00:00 TS 15.10 -71.90 40 40
NA 03:00:00 TS 15.28 -71.89 40
NA 06:00:00 TS 15.50 -71.90 40 40
NA 09:00:00 TS 15.77 -71.95 45
NA 12:00:00 TS 16.00 -72.00 50 50
NA 15:00:00 TS 16.12 -72.01 50
NA 18:00:00 TS 16.20 -72.00 50 50
NA 21:00:00 TS 16.29 -71.99 55
NA 1878-09-25 00:00:00 TS 16.40 -72.00 60 60
NA 03:00:00 TS 16.54 -72.05 60
NA 06:00:00 TS 16.70 -72.10 60 60
NA 09:00:00 TS 16.83 -72.10 65
NA 12:00:00 TS 17.03 -71.92 70 70 65
NA 15:00:00 TS 17.34 -71.91 70 65
NA 18:00:00 TS 17.65 -72.01 70 70 65
NA 21:00:00 TS 17.87 -72.19 70 65
NA 1878-09-26 00:00:00 TS 18.07 -72.37 70 70 65
NA 03:00:00 TS 18.30 -72.46 65 62
NA 06:00:00 TS 18.53 -72.50 60 60 60
NA 09:00:00 TS 18.71 -72.55 55 55
NA 12:00:00 TS 18.90 -72.60 50 50 50
NA 15:00:00 TS 19.18 -72.66 45 45
NA 18:00:00 TS 19.47 -72.70 40 40 40
NA 21:00:00 TS 19.70 -72.71 40 40
NA 1878-09-27 00:00:00 TS 19.90 -72.70 40 40 40
NA 03:00:00 TS 20.08 -72.72 40 42
NA 06:00:00 TS 20.27 -72.73 40 40 45
NA 09:00:00 TS 20.51 -72.74 45 47
NA 12:00:00 TS 20.77 -72.73 50 50 50
NA 15:00:00 TS 21.00 -72.73 55 52
NA 18:00:00 TS 21.23 -72.73 60 60 55
NA 21:00:00 TS 21.47 -72.75 65 55
NA 1878-09-28 00:00:00 TS 21.70 -72.77 70 70 55
NA 03:00:00 TS 21.90 -72.78 70 57
NA 06:00:00 TS 22.10 -72.80 70 70 60
NA 09:00:00 TS 22.31 -72.82 70 60
NA 12:00:00 TS 22.53 -72.83 70 70 60
NA 15:00:00 TS 22.79 -72.80 70 62
NA 18:00:00 TS 23.03 -72.77 70 70 65
NA 21:00:00 TS 23.21 -72.78 75 65
NA 1878-09-29 00:00:00 TS 23.19 -72.89 80 80 65
NA 03:00:00 TS 23.14 -73.01 80 67
NA 06:00:00 TS 23.04 -73.18 80 80 70
NA 09:00:00 TS 22.94 -73.46 80
NA 12:00:00 TS 23.20 -73.50 80 80
NA 15:00:00 TS 23.41 -73.51 80
NA 18:00:00 TS 23.60 -73.50 80 80
NA 21:00:00 TS 23.76 -73.50 85
NA 1878-09-30 00:00:00 TS 23.90 -73.50 90 90
NA 03:00:00 TS 24.03 -73.50 90
NA 06:00:00 TS 24.20 -73.50 90 90
NA 09:00:00 TS 24.42 -73.50 90
NA 12:00:00 TS 24.70 -73.50 90 90
NA 15:00:00 TS 25.06 -73.50 90
NA 18:00:00 TS 25.40 -73.50 90 90
NA 21:00:00 TS 25.61 -73.51 95
NA 1878-10-01 00:00:00 TS 25.80 -73.50 100 100
NA 03:00:00 TS 26.04 -73.46 100
NA 06:00:00 TS 26.30 -73.40 100 100
NA 09:00:00 TS 26.54 -73.36 100
NA 12:00:00 TS 26.80 -73.30 100 100
NA 15:00:00 TS 27.12 -73.19 100
NA 18:00:00 TS 27.40 -73.10 100 100
NA 21:00:00 TS 27.51 -73.08 105
NA 1878-10-02 00:00:00 TS 27.60 -73.10 110 110
NA 03:00:00 TS 27.95 -72.72 110
NA 06:00:00 TS 28.24 -72.44 110 110 110
NA 09:00:00 TS 28.48 -72.20 110 110
NA 12:00:00 TS 28.67 -72.00 110 110 110
NA 15:00:00 TS 28.77 -72.02 110 110
NA 18:00:00 TS 28.87 -72.03 110 110 110
NA 21:00:00 TS 28.96 -71.98 115 115
NA 1878-10-03 00:00:00 TS 29.07 -71.93 120 120 120
NA 03:00:00 TS 29.20 -71.95 120 120
NA 06:00:00 TS 29.33 -71.97 120 120 120
NA 09:00:00 TS 29.40 -71.90 120 120
NA 12:00:00 TS 29.53 -71.80 120 120 120 958
NA 15:00:00 TS 29.88 -71.73 120 120
NA 18:00:00 TS 30.30 -71.63 120 120 120
NA 21:00:00 TS 30.63 -71.52 120 117
NA 1878-10-04 00:00:00 TS 30.93 -71.33 120 120 115
NA 03:00:00 TS 31.25 -71.06 120 115
NA 06:00:00 TS 31.57 -70.73 120 120 115
NA 09:00:00 TS 31.91 -70.41 120 112
NA 12:00:00 TS 32.27 -70.07 120 120 110
NA 15:00:00 TS 32.61 -69.72 120 110
NA 18:00:00 TS 32.93 -69.37 120 120 110
NA 21:00:00 TS 33.21 -68.99 115 107
NA 1878-10-05 00:00:00 TS 33.47 -68.60 110 110 105
NA 03:00:00 TS 33.72 -68.24 110 105
NA 06:00:00 TS 33.97 -67.87 110 110 105
NA 09:00:00 TS 34.19 -67.47 110 102
NA 12:00:00 TS 34.50 -66.97 110 110 100
NA 15:00:00 TS 34.96 -66.29 110 100
NA 18:00:00 TS 35.53 -65.47 110 110 100
NA 21:00:00 TS 36.17 -64.54 110 97
NA 1878-10-06 00:00:00 TS 36.83 -63.53 110 110 95
NA 03:00:00 TS 37.40 -62.54 110 95
NA 06:00:00 TS 38.00 -61.50 110 110 95
NA 09:00:00 TS 38.73 -60.38 110 92
NA 12:00:00 TS 39.47 -59.20 110 110 90
NA 15:00:00 TS 40.07 -58.02 110 87
NA 18:00:00 TS 40.63 -56.77 110 110 85 972
NA 21:00:00 TS 41.21 -55.42 110 82 967
NA 1878-10-07 00:00:00 TS 41.80 -53.93 110 110 80 963
NA 03:00:00 TS 42.40 -52.28 110 80 959
NA 06:00:00 TS 42.97 -50.57 110 110 80 955
NA 09:00:00 TS 43.46 -48.95 110 80 952
NA 12:00:00 TS 43.97 -47.30 110 938 110 938 80 949
NA 15:00:00 TS 44.53 -45.51 105 77
NA 18:00:00 TS 45.13 -43.60 100 100 75
NA 21:00:00 TS 45.75 -41.54 100 72
NA 1878-10-08 00:00:00 TS 46.37 -39.50 100 100 70
NA 03:00:00 TS 46.96 -37.69 100 67
NA 06:00:00 MX 47.53 -35.93 100 100 65
NA 09:00:00 MX 48.06 -34.02 95 65
NA 12:00:00 MX 48.50 -32.28 90 90 65
NA 15:00:00 MX 48.76 -30.73 90 65
NA 18:00:00 MX 48.77 -29.47 90 90 65
NA 21:00:00 ET 48.35 -28.91 62
NA 1878-10-09 00:00:00 ET 48.30 -27.10 60
NA 03:00:00 ET 48.24 -25.29 60
NA 06:00:00 ET 48.20 -23.50 60
NA 09:00:00 ET 48.20 -21.74 60
NA 12:00:00 ET 48.20 -20.00 60

Source Information

Agency Information
USA hurdat2-1851-2018-051019.txt:Line=3554:UNNAMED
TOKYO
CMA
HKO
NEWDELHI
REUNION
BOM
NADI
WELLINGTON
DS824
TD9636
TD9635
NEUMANN
MLC

All available IBTrACS Data

SEASON BASIN SUBBASIN ISO_TIME_________ NATURE LAT LON WMO WIND WMO PRES WMO AGENCY DIST2LAND LANDFALL IFLAG USA AGENCY USA ATCF_ID USA LAT USA LON USA STATUS USA WIND USA PRES USA SSHS MLC LAT MLC LON MLC CLASS MLC WIND MLC PRES STORM SPEED STORM DIR
Year degrees north degrees east kts mb km km degrees north degrees east kts mb 1 degrees north degrees east kts mb kts degrees
1878 NA CS 1878-09-24 00:00:00 TS 15.10 -71.90 40 hurdat_atl 284 262 O_____________ hurdat_atl AL071878 15.10 -71.90 TS 40 0 4 0
1878 NA CS 03:00:00 TS 15.28 -71.89 262 240 P_____________ AL071878 15.28 -71.89 TS 40 0 4 0
1878 NA CS 06:00:00 TS 15.50 -71.90 40 hurdat_atl 240 208 O_____________ hurdat_atl AL071878 15.50 -71.90 TS 40 0 5 353
1878 NA CS 09:00:00 TS 15.77 -71.95 208 190 P_____________ AL071878 15.77 -71.95 TS 45 0 5 349
1878 NA CS 12:00:00 TS 16.00 -72.00 50 hurdat_atl 190 179 O_____________ hurdat_atl AL071878 16.00 -72.00 TS 50 0 4 350
1878 NA CS 15:00:00 TS 16.12 -72.01 179 169 P_____________ AL071878 16.12 -72.01 TS 50 0 2 8
1878 NA CS 18:00:00 TS 16.20 -72.00 50 hurdat_atl 169 158 O_____________ hurdat_atl AL071878 16.20 -72.00 TS 50 0 2 0
1878 NA CS 21:00:00 TS 16.29 -71.99 158 148 P_____________ AL071878 16.29 -71.99 TS 55 0 2 8
1878 NA CS 1878-09-25 00:00:00 TS 16.40 -72.00 60 hurdat_atl 148 138 O_____________ hurdat_atl AL071878 16.40 -72.00 TS 60 0 3 347
1878 NA CS 03:00:00 TS 16.54 -72.05 138 125 P_____________ AL071878 16.54 -72.05 TS 60 0 3 343
1878 NA CS 06:00:00 TS 16.70 -72.10 60 hurdat_atl 125 116 O_____________ hurdat_atl AL071878 16.70 -72.10 TS 60 0 3 352
1878 NA CS 09:00:00 TS 16.83 -72.10 116 85 P_____________ AL071878 16.83 -72.10 TS 65 1 4 27
1878 NA CS 12:00:00 TS 17.03 -71.92 70 hurdat_atl 85 62 O____________O hurdat_atl AL071878 17.00 -72.10 HU 70 1 17.30 -70.50 HU 65 5 19
1878 NA CS 15:00:00 TS 17.34 -71.91 62 46 P____________P AL071878 17.29 -72.14 HU 70 1 17.57 -70.98 HU 65 6 352
1878 NA CS 18:00:00 TS 17.65 -72.01 70 hurdat_atl 43 33 O____________O hurdat_atl AL071878 17.60 -72.20 HU 70 1 17.80 -71.50 HU 65 6 334
1878 NA CS 21:00:00 TS 17.87 -72.19 33 11 P____________P AL071878 17.81 -72.25 HU 70 1 17.99 -72.06 HU 65 5 320
1878 NA CS 1878-09-26 00:00:00 TS 18.07 -72.37 70 hurdat_atl 11 0 O____________O hurdat_atl AL071878 18.00 -72.30 HU 70 1 18.20 -72.50 HU 65 5 329
1878 NA NA 03:00:00 TS 18.30 -72.46 0 0 P____________P AL071878 18.21 -72.35 HU 65 1 18.49 -72.67 HU 62 5 345
1878 NA CS 06:00:00 TS 18.53 -72.50 60 hurdat_atl 0 0 O____________O hurdat_atl AL071878 18.40 -72.40 TS 60 0 18.80 -72.70 TS 60 4 347
1878 NA CS 09:00:00 TS 18.71 -72.55 15 0 P____________P AL071878 18.54 -72.45 TS 55 0 19.04 -72.76 TS 55 4 345
1878 NA NA 12:00:00 TS 18.90 -72.60 50 hurdat_atl 0 0 O____________O hurdat_atl AL071878 18.70 -72.50 TS 50 0 19.30 -72.80 TS 50 5 348
1878 NA NA 15:00:00 TS 19.18 -72.66 0 0 P____________P AL071878 18.95 -72.56 TS 45 0 19.64 -72.86 TS 45 6 350
1878 NA NA 18:00:00 TS 19.47 -72.70 40 hurdat_atl 0 0 O____________O hurdat_atl AL071878 19.20 -72.60 TS 40 0 20.00 -72.90 TS 40 5 355
1878 NA NA 21:00:00 TS 19.70 -72.71 0 0 P____________P AL071878 19.37 -72.61 TS 40 0 20.35 -72.90 TS 40 4 1
1878 NA NA 1878-09-27 00:00:00 TS 19.90 -72.70 40 hurdat_atl 0 0 O____________O hurdat_atl AL071878 19.50 -72.60 TS 40 0 20.70 -72.90 TS 40 4 0
1878 NA NA 03:00:00 TS 20.08 -72.72 22 22 P____________P AL071878 19.59 -72.60 TS 40 0 21.05 -72.95 TS 42 4 354
1878 NA NA 06:00:00 TS 20.27 -72.73 40 hurdat_atl 44 44 O____________O hurdat_atl AL071878 19.70 -72.60 TS 40 0 21.40 -73.00 TS 45 4 357
1878 NA NA 09:00:00 TS 20.51 -72.74 67 47 P____________P AL071878 19.89 -72.59 TS 45 0 21.76 -73.02 TS 47 5 2
1878 NA NA 12:00:00 TS 20.77 -72.73 50 hurdat_atl 47 38 O____________O hurdat_atl AL071878 20.10 -72.60 TS 50 0 22.10 -73.00 TS 50 5 0
1878 NA NA 15:00:00 TS 21.00 -72.73 38 31 P____________P AL071878 20.30 -72.64 TS 55 0 22.41 -72.91 TS 52 5 0
1878 NA NA 18:00:00 TS 21.23 -72.73 60 hurdat_atl 31 31 O____________O hurdat_atl AL071878 20.50 -72.70 TS 60 0 22.70 -72.80 TS 55 5 357
1878 NA NA 21:00:00 TS 21.47 -72.75 45 39 P____________P AL071878 20.71 -72.75 TS 65 1 23.00 -72.74 TS 55 5 355
1878 NA NA 1878-09-28 00:00:00 TS 21.70 -72.77 70 hurdat_atl 59 59 O____________O hurdat_atl AL071878 20.90 -72.80 HU 70 1 23.30 -72.70 TS 55 4 354
1878 NA NA 03:00:00 TS 21.90 -72.78 80 80 P____________P AL071878 21.05 -72.85 HU 70 1 23.61 -72.65 TS 57 4 355
1878 NA NA 06:00:00 TS 22.10 -72.80 70 hurdat_atl 102 102 O____________O hurdat_atl AL071878 21.20 -72.90 HU 70 1 23.90 -72.60 TS 60 4 354
1878 NA NA 09:00:00 TS 22.31 -72.82 124 124 P____________P AL071878 21.38 -72.95 HU 70 1 24.16 -72.57 TS 60 4 355
1878 NA NA 12:00:00 TS 22.53 -72.83 70 hurdat_atl 146 146 O____________O hurdat_atl AL071878 21.60 -73.00 HU 70 1 24.40 -72.50 TS 60 5 0
1878 NA NA 15:00:00 TS 22.79 -72.80 180 180 P____________P AL071878 21.86 -73.04 HU 70 1 24.66 -72.32 TS 62 5 7
1878 NA NA 18:00:00 TS 23.03 -72.77 70 hurdat_atl 202 202 O____________O hurdat_atl AL071878 22.10 -73.10 HU 70 1 24.90 -72.10 HU 65 4 0
1878 NA NA 21:00:00 TS 23.21 -72.78 224 223 P____________P AL071878 22.27 -73.20 HU 75 1 25.10 -71.95 HU 65 2 324
1878 NA NA 1878-09-29 00:00:00 TS 23.19 -72.89 80 hurdat_atl 223 212 O____________O hurdat_atl AL071878 22.40 -73.30 HU 80 1 25.30 -71.80 HU 65 2 250
1878 NA NA 03:00:00 TS 23.14 -73.01 212 212 P____________P AL071878 22.53 -73.36 HU 80 1 25.54 -71.61 HU 67 3 241
1878 NA NA 06:00:00 TS 23.04 -73.18 80 hurdat_atl 201 191 O____________O hurdat_atl AL071878 22.70 -73.40 HU 80 1 25.80 -71.40 HU 70 5 245
1878 NA NA 09:00:00 TS 22.94 -73.46 192 192 P_____________ AL071878 22.94 -73.46 HU 80 1 HU 3 298
1878 NA NA 12:00:00 TS 23.20 -73.50 80 hurdat_atl 225 225 O_____________ hurdat_atl AL071878 23.20 -73.50 HU 80 1 HU 5 354
1878 NA NA 15:00:00 TS 23.41 -73.51 247 247 P_____________ AL071878 23.41 -73.51 HU 80 1 HU 4 0
1878 NA NA 18:00:00 TS 23.60 -73.50 80 hurdat_atl 270 270 O_____________ hurdat_atl AL071878 23.60 -73.50 HU 80 1 HU 3 2
1878 NA NA 21:00:00 TS 23.76 -73.50 292 292 P_____________ AL071878 23.76 -73.50 HU 85 2 HU 3 0
1878 NA NA 1878-09-30 00:00:00 TS 23.90 -73.50 90 hurdat_atl 303 303 O_____________ hurdat_atl AL071878 23.90 -73.50 HU 90 2 HU 3 0
1878 NA NA 03:00:00 TS 24.03 -73.50 314 314 P_____________ AL071878 24.03 -73.50 HU 90 2 HU 3 0
1878 NA NA 06:00:00 TS 24.20 -73.50 90 hurdat_atl 336 336 O_____________ hurdat_atl AL071878 24.20 -73.50 HU 90 2 HU 4 3
1878 NA NA 09:00:00 TS 24.42 -73.50 359 359 P_____________ AL071878 24.42 -73.50 HU 90 2 HU 5 2
1878 NA NA 12:00:00 TS 24.70 -73.50 90 hurdat_atl 392 392 O_____________ hurdat_atl AL071878 24.70 -73.50 HU 90 2 HU 6 2
1878 NA NA 15:00:00 TS 25.06 -73.50 428 428 P_____________ AL071878 25.06 -73.50 HU 90 2 HU 7 0
1878 NA NA 18:00:00 TS 25.40 -73.50 90 hurdat_atl 434 434 O_____________ hurdat_atl AL071878 25.40 -73.50 HU 90 2 HU 6 357
1878 NA NA 21:00:00 TS 25.61 -73.51 440 440 P_____________ AL071878 25.61 -73.51 HU 95 2 HU 4 0
1878 NA NA 1878-10-01 00:00:00 TS 25.80 -73.50 100 hurdat_atl 446 446 O_____________ hurdat_atl AL071878 25.80 -73.50 HU 100 3 HU 4 6
1878 NA NA 03:00:00 TS 26.04 -73.46 454 454 P_____________ AL071878 26.04 -73.46 HU 100 3 HU 5 10
1878 NA NA 06:00:00 TS 26.30 -73.40 100 hurdat_atl 476 476 O_____________ hurdat_atl AL071878 26.30 -73.40 HU 100 3 HU 5 10
1878 NA NA 09:00:00 TS 26.54 -73.36 484 484 P_____________ AL071878 26.54 -73.36 HU 100 3 HU 5 10
1878 NA NA 12:00:00 TS 26.80 -73.30 100 hurdat_atl 506 506 O_____________ hurdat_atl AL071878 26.80 -73.30 HU 100 3 HU 6 14
1878 NA NA 15:00:00 TS 27.12 -73.19 528 528 P_____________ AL071878 27.12 -73.19 HU 100 3 HU 6 16
1878 NA NA 18:00:00 TS 27.40 -73.10 100 hurdat_atl 551 551 O_____________ hurdat_atl AL071878 27.40 -73.10 HU 100 3 HU 4 13
1878 NA NA 21:00:00 TS 27.51 -73.08 556 556 P_____________ AL071878 27.51 -73.08 HU 105 3 HU 2 8
1878 NA NA 1878-10-02 00:00:00 TS 27.60 -73.10 110 hurdat_atl 562 562 O_____________ hurdat_atl AL071878 27.60 -73.10 HU 110 3 HU 5 36
1878 NA NA 03:00:00 TS 27.95 -72.72 618 618 P_____________ AL071878 27.78 -73.11 HU 110 3 HU 9 42
1878 NA NA 06:00:00 TS 28.24 -72.44 110 hurdat_atl 654 654 O____________O hurdat_atl AL071878 28.00 -73.10 HU 110 3 29.20 -69.80 MH 110 7 41
1878 NA NA 09:00:00 TS 28.48 -72.20 689 689 P____________P AL071878 28.25 -73.06 HU 110 3 29.11 -69.89 MH 110 6 42
1878 NA NA 12:00:00 TS 28.67 -72.00 110 hurdat_atl 717 717 O____________O hurdat_atl AL071878 28.50 -73.00 HU 110 3 29.00 -70.00 MH 110 3 27
1878 NA NA 15:00:00 TS 28.77 -72.02 723 723 P____________P AL071878 28.71 -72.96 HU 110 3 28.90 -70.14 MH 110 2 347
1878 NA NA 18:00:00 TS 28.87 -72.03 110 hurdat_atl 729 729 O____________O hurdat_atl AL071878 28.90 -72.90 HU 110 3 28.80 -70.30 MH 110 2 11
1878 NA NA 21:00:00 TS 28.96 -71.98 736 736 P____________P AL071878 29.09 -72.75 HU 115 4 28.70 -70.45 MH 115 2 25
1878 NA NA 1878-10-03 00:00:00 TS 29.07 -71.93 120 hurdat_atl 750 745 O____________O hurdat_atl AL071878 29.30 -72.60 HU 120 4 28.60 -70.60 MH 120 2 0
1878 NA NA 03:00:00 TS 29.20 -71.95 745 736 P____________P AL071878 29.55 -72.56 HU 120 4 28.50 -70.75 MH 120 3 354
1878 NA NA 06:00:00 TS 29.33 -71.97 120 hurdat_atl 736 726 O____________O hurdat_atl AL071878 29.80 -72.50 HU 120 4 28.40 -70.90 MH 120 2 18
1878 NA NA 09:00:00 TS 29.40 -71.90 732 728 P____________P AL071878 29.99 -72.31 HU 120 4 28.20 -71.08 MH 120 2 36
1878 NA NA 12:00:00 TS 29.53 -71.80 120 hurdat_atl 728 699 O____________O hurdat_atl AL071878 30.20 -72.10 HU 120 4 28.20 -71.20 MH 120 958 5 17
1878 NA NA 15:00:00 TS 29.88 -71.73 699 671 P____________P AL071878 30.48 -72.00 HU 120 4 28.68 -71.18 MH 120 8 10
1878 NA NA 18:00:00 TS 30.30 -71.63 120 hurdat_atl 671 653 O____________O hurdat_atl AL071878 30.80 -71.90 HU 120 4 29.30 -71.10 MH 120 8 14
1878 NA NA 21:00:00 TS 30.63 -71.52 653 636 P____________P AL071878 31.11 -71.72 HU 120 4 29.66 -71.12 MH 117 7 22
1878 NA NA 1878-10-04 00:00:00 TS 30.93 -71.33 120 hurdat_atl 643 635 O____________O hurdat_atl AL071878 31.40 -71.50 HU 120 4 30.00 -71.00 MH 115 7 32
1878 NA NA 03:00:00 TS 31.25 -71.06 635 628 P____________P AL071878 31.65 -71.31 HU 120 4 30.44 -70.57 MH 115 8 39
1878 NA NA 06:00:00 TS 31.57 -70.73 120 hurdat_atl 636 631 O____________O hurdat_atl AL071878 31.90 -71.10 HU 120 4 30.90 -70.00 MH 115 9 40
1878 NA NA 09:00:00 TS 31.91 -70.41 639 631 P____________P AL071878 32.18 -70.86 HU 120 4 31.39 -69.49 MH 112 9 39
1878 NA NA 12:00:00 TS 32.27 -70.07 120 hurdat_atl 631 631 O____________O hurdat_atl AL071878 32.50 -70.60 HU 120 4 31.80 -69.00 MH 110 9 40
1878 NA NA 15:00:00 TS 32.61 -69.72 640 634 P____________P AL071878 32.90 -70.32 HU 120 4 32.04 -68.54 MH 110 9 41
1878 NA NA 18:00:00 TS 32.93 -69.37 120 hurdat_atl 645 645 O____________O hurdat_atl AL071878 33.30 -70.00 HU 120 4 32.20 -68.10 MH 110 9 46
1878 NA NA 21:00:00 TS 33.21 -68.99 661 661 P____________P AL071878 33.62 -69.66 HU 115 4 32.39 -67.64 MH 107 8 50
1878 NA NA 1878-10-05 00:00:00 TS 33.47 -68.60 110 hurdat_atl 679 679 O____________O hurdat_atl AL071878 33.90 -69.30 HU 110 3 32.60 -67.20 MH 105 8 51
1878 NA NA 03:00:00 TS 33.72 -68.24 705 701 P____________P AL071878 34.15 -68.96 HU 110 3 32.85 -66.80 MH 105 8 51
1878 NA NA 06:00:00 TS 33.97 -67.87 110 hurdat_atl 719 719 O____________O hurdat_atl AL071878 34.40 -68.60 HU 110 3 33.10 -66.40 MH 105 8 53
1878 NA NA 09:00:00 TS 34.19 -67.47 748 748 P____________P AL071878 34.66 -68.18 HU 110 3 33.25 -66.06 MH 102 9 54
1878 NA NA 12:00:00 TS 34.50 -66.97 110 hurdat_atl 784 784 O____________O hurdat_atl AL071878 35.00 -67.70 HU 110 3 33.50 -65.50 MH 100 12 52
1878 NA NA 15:00:00 TS 34.96 -66.29 812 788 P____________P AL071878 35.45 -67.22 HU 110 3 33.98 -64.45 MH 100 16 50
1878 NA NA 18:00:00 TS 35.53 -65.47 110 hurdat_atl 792 772 O____________O hurdat_atl AL071878 36.00 -66.60 HU 110 3 34.60 -63.20 MH 100 19 50
1878 NA NA 21:00:00 TS 36.17 -64.54 774 759 P____________P AL071878 36.63 -65.78 HU 110 3 35.25 -62.06 MH 97 20 50
1878 NA NA 1878-10-06 00:00:00 TS 36.83 -63.53 110 hurdat_atl 761 715 O____________O hurdat_atl AL071878 37.30 -64.80 HU 110 3 35.90 -61.00 HU 95 20 52
1878 NA NA 03:00:00 TS 37.40 -62.54 718 686 P____________P AL071878 37.91 -63.72 HU 110 3 36.39 -60.18 HU 95 20 54
1878 NA NA 06:00:00 TS 38.00 -61.50 110 hurdat_atl 689 671 O____________O hurdat_atl AL071878 38.50 -62.60 HU 110 3 37.00 -59.30 HU 95 22 52
1878 NA NA 09:00:00 TS 38.73 -60.38 672 652 P____________P AL071878 39.11 -61.55 HU 110 3 37.97 -58.04 HU 92 23 51
1878 NA NA 12:00:00 TS 39.47 -59.20 110 hurdat_atl 648 624 O____________O hurdat_atl AL071878 39.70 -60.50 HU 110 3 39.00 -56.60 HU 90 23 54
1878 NA NA 15:00:00 TS 40.07 -58.02 620 612 P____________P AL071878 40.21 -59.45 HU 110 3 39.79 -55.16 HU 87 22 58
1878 NA NA 18:00:00 TS 40.63 -56.77 110 hurdat_atl 619 614 O____________O hurdat_atl AL071878 40.70 -58.30 HU 110 3 40.50 -53.70 HU 85 972 23 60
1878 NA NA 21:00:00 TS 41.21 -55.42 617 534 P____________P AL071878 41.20 -57.00 HU 110 3 41.25 -52.25 HU 82 967 24 61
1878 NA NA 1878-10-07 00:00:00 TS 41.80 -53.93 110 hurdat_atl 534 471 O____________I hurdat_atl AL071878 41.70 -55.50 HU 110 3 42.00 -50.80 HU 80 963 26 63
1878 NA NA 03:00:00 TS 42.40 -52.28 472 450 P____________P AL071878 42.22 -53.75 HU 110 3 42.76 -49.35 HU 80 959 27 65
1878 NA NA 06:00:00 TS 42.97 -50.57 110 hurdat_atl 449 449 O____________O hurdat_atl AL071878 42.70 -51.90 HU 110 3 43.50 -47.90 HU 80 955 27 66
1878 NA NA 09:00:00 TS 43.46 -48.95 475 475 P____________P AL071878 43.07 -50.24 HU 110 3 44.24 -46.38 HU 80 952 26 67
1878 NA NA 12:00:00 TS 43.97 -47.30 110 938 hurdat_atl 541 541 O____________O hurdat_atl AL071878 43.50 -48.50 HU 110 938 3 44.90 -44.90 HU 80 949 27 67
1878 NA NA 15:00:00 TS 44.53 -45.51 634 634 P____________P AL071878 44.10 -46.50 HU 105 3 45.38 -43.52 HU 77 29 66
1878 NA NA 18:00:00 TS 45.13 -43.60 100 hurdat_atl 737 737 O____________O hurdat_atl AL071878 44.80 -44.30 HU 100 3 45.80 -42.20 HU 75 30 66
1878 NA NA 21:00:00 TS 45.75 -41.54 863 863 P____________P AL071878 45.50 -41.88 HU 100 3 46.25 -40.85 HU 72 31 67
1878 NA NA 1878-10-08 00:00:00 TS 46.37 -39.50 100 hurdat_atl 996 996 O____________O hurdat_atl AL071878 46.20 -39.50 HU 100 3 46.70 -39.50 HU 70 29 65
1878 NA NA 03:00:00 TS 46.96 -37.69 1119 1119 P____________P AL071878 46.87 -37.47 HU 100 3 47.15 -38.14 HU 67 27 64
1878 NA NA 06:00:00 MX 47.53 -35.93 100 hurdat_atl 1246 1246 O____________O hurdat_atl AL071878 47.50 -35.50 HU 100 3 47.60 -36.80 EX 65 27 66
1878 NA NA 09:00:00 MX 48.06 -34.02 1381 1381 P____________P AL071878 48.02 -33.25 HU 95 2 48.12 -35.56 EX 65 26 68
1878 NA NA 12:00:00 MX 48.50 -32.28 90 hurdat_atl 1458 1457 O____________O hurdat_atl AL071878 48.50 -31.00 HU 90 2 48.50 -34.20 EX 65 23 72
1878 NA NA 15:00:00 MX 48.76 -30.73 1464 1383 P____________P AL071878 49.00 -28.95 HU 90 2 48.52 -32.52 EX 65 19 82
1878 NA NA 18:00:00 MX 48.77 -29.47 90 hurdat_atl 1383 1367 O____________O hurdat_atl AL071878 49.50 -27.00 HU 90 2 48.40 -30.70 EX 65 13 109
1878 NA NA 21:00:00 ET 48.35 -28.91 1365 1252 _____________P AL071878 HU -1 48.35 -28.91 EX 62 16 107
1878 NA NA 1878-10-09 00:00:00 ET 48.30 -27.10 1245 1136 _____________O 48.30 -27.10 EX 60 24 93
1878 NA NA 03:00:00 ET 48.24 -25.29 1130 1018 _____________P 48.24 -25.29 EX 60 24 92
1878 NA NA 06:00:00 ET 48.20 -23.50 1012 902 _____________O 48.20 -23.50 EX 60 24 91
1878 NA NA 09:00:00 ET 48.20 -21.74 896 796 _____________P 48.20 -21.74 EX 60 23 90
1878 NA NA 12:00:00 ET 48.20 -20.00 790 _____________O 48.20 -20.00 EX 60 23 90